»·PEaware :: SBE250 KJAC-KPAE

SBE250 :: KJAC-KPAE

FLIGHT INFORMATION

Flight Status: Arrived
Operator: Unknown
More flights by this operator :: More flights under this callsign
Pilot: Andrew J. (13363)
Aircraft: BEECH AIRCRAFT PREMIER
(PRM1)
More flights by this aircraft type
Origin: KJAC Jackson Hole
United States
Destination: KPAE Paine Field/Snohomish Co.
United States
More flights between these airports :: More routes between these airports
Route: ALPIN2 IDA DBS J82 DNJ J20 PDT CHINS3
File this flight plan on PilotEdge
Remarks: Starbase SBE
Altitude:
(Current/Filed)
38,000ft
Speed:
(Current/Filed)
444kts
Departed: 01-Oct-19 06:22 PM
Arrived: 01-Oct-19 08:09 PM
Distance/Time
Traveled:
547nm/1:47
Distance/Time
To Go:
Arrived

Flight Plot

Page will automatically refresh every two minutes.

Flight plan parsing failed; only flown route is shown


Map Options




Map Legend


Flown Route
Filed Route
Departure Airport
Arrival Airport
Navaid (VOR, NDB)
Fix

Horizontal Profiles

Position Reports

Time Latitude Longitude Heading Altitude Ground
Speed
01-Oct-19 18:00 43.600654 -110.737322 290 6458ft 0kts
01-Oct-19 18:01 43.600654 -110.737322 290 6458ft 0kts
01-Oct-19 18:02 43.600654 -110.737322 290 6458ft 0kts
01-Oct-19 18:03 43.600654 -110.737322 290 6458ft 0kts
01-Oct-19 18:04 43.600654 -110.737322 290 6458ft 0kts
01-Oct-19 18:05 43.600654 -110.737322 290 6458ft 0kts
01-Oct-19 18:06 43.600654 -110.737322 290 6458ft 0kts
01-Oct-19 18:07 43.600654 -110.737322 290 6458ft 0kts
01-Oct-19 18:08 43.600654 -110.737322 290 6458ft 0kts
01-Oct-19 18:09 43.600654 -110.737322 290 6458ft 0kts
01-Oct-19 18:10 43.600777 -110.737776 291 6458ft 5kts
01-Oct-19 18:11 43.600926 -110.738160 320 6458ft 0kts
01-Oct-19 18:12 43.601012 -110.738236 332 6458ft 0kts
01-Oct-19 18:13 43.601485 -110.738216 312 6458ft 2kts
01-Oct-19 18:15 43.601543 -110.738369 288 6458ft 0kts
01-Oct-19 18:16 43.601543 -110.738369 288 6458ft 0kts
01-Oct-19 18:17 43.601543 -110.738369 288 6458ft 0kts
01-Oct-19 18:18 43.601381 -110.739055 198 6458ft 8kts
01-Oct-19 18:19 43.599035 -110.740417 249 6458ft 0kts
01-Oct-19 18:20 43.599035 -110.740417 249 6458ft 0kts
01-Oct-19 18:22 43.602447 -110.740154 19 6458ft 76kts
01-Oct-19 18:23 43.643304 -110.721167 17 7804ft 197kts
01-Oct-19 18:24 43.699895 -110.695293 18 10382ft 235kts
01-Oct-19 18:25 43.763857 -110.665222 18 13123ft 253kts
01-Oct-19 18:26 43.815770 -110.607604 100 15483ft 265kts
01-Oct-19 18:27 43.765953 -110.577573 228 18033ft 227kts
01-Oct-19 18:28 43.756870 -110.666129 247 20277ft 237kts
01-Oct-19 18:29 43.742688 -110.755842 249 21892ft 241kts
01-Oct-19 18:30 43.727788 -110.846197 249 23500ft 242kts
01-Oct-19 18:31 43.712652 -110.937366 249 24988ft 244kts
01-Oct-19 18:32 43.701809 -111.026183 278 26634ft 261kts
01-Oct-19 18:33 43.734125 -111.120262 281 27990ft 272kts
01-Oct-19 18:34 43.766052 -111.216511 281 29371ft 277kts
01-Oct-19 18:35 43.798333 -111.313988 281 30859ft 273kts
01-Oct-19 18:36 43.829639 -111.409208 281 32056ft 275kts
01-Oct-19 18:37 43.861607 -111.506558 282 33073ft 280kts
01-Oct-19 18:38 43.894115 -111.605957 282 33997ft 286kts
01-Oct-19 18:39 43.927027 -111.706887 282 35041ft 284kts
01-Oct-19 18:40 43.959103 -111.805710 282 36070ft 281kts
01-Oct-19 18:41 43.991048 -111.904506 282 36930ft 280kts
01-Oct-19 18:41 44.017615 -111.986944 282 37570ft 280kts
01-Oct-19 18:43 44.054811 -112.103008 283 38058ft 291kts
01-Oct-19 18:43 44.083181 -112.191777 284 38058ft 311kts
01-Oct-19 18:44 44.107485 -112.308266 276 38046ft 323kts
01-Oct-19 18:46 44.134823 -112.453946 277 38043ft 342kts
01-Oct-19 18:46 44.155110 -112.562819 278 38043ft 354kts
01-Oct-19 18:47 44.180050 -112.697592 277 38049ft 366kts
01-Oct-19 18:49 44.210079 -112.861076 278 38094ft 378kts
01-Oct-19 18:49 44.231911 -112.980905 278 38101ft 386kts
01-Oct-19 18:50 44.258435 -113.127515 279 38073ft 393kts
01-Oct-19 18:51 44.285133 -113.276281 279 38072ft 398kts
01-Oct-19 18:52 44.312076 -113.427663 280 38072ft 402kts
01-Oct-19 18:53 44.338919 -113.579748 280 38071ft 405kts
01-Oct-19 18:54 44.365562 -113.732020 280 38076ft 408kts
01-Oct-19 18:55 44.392408 -113.886749 280 38076ft 410kts
01-Oct-19 18:56 44.419195 -114.042491 280 38075ft 412kts
01-Oct-19 18:57 44.445788 -114.198495 281 38074ft 413kts
01-Oct-19 18:58 44.472241 -114.355064 281 38074ft 415kts
01-Oct-19 18:59 44.498652 -114.512814 282 38073ft 416kts
01-Oct-19 19:00 44.523184 -114.660648 281 38074ft 417kts
01-Oct-19 19:01 44.550654 -114.827714 282 38076ft 418kts
01-Oct-19 19:02 44.576603 -114.987115 282 38075ft 419kts
01-Oct-19 19:03 44.602325 -115.146516 282 38075ft 420kts
01-Oct-19 19:04 44.627886 -115.306483 282 38074ft 421kts
01-Oct-19 19:05 44.653289 -115.467016 283 38074ft 421kts
01-Oct-19 19:06 44.678429 -115.627442 283 38073ft 421kts
01-Oct-19 19:07 44.703277 -115.787577 283 38075ft 421kts
01-Oct-19 19:08 44.728043 -115.948763 283 38074ft 422kts
01-Oct-19 19:09 44.752573 -116.110034 283 38074ft 422kts
01-Oct-19 19:10 44.788571 -116.265515 297 38074ft 419kts
01-Oct-19 19:11 44.840649 -116.412205 298 38072ft 419kts
01-Oct-19 19:12 44.892682 -116.558833 298 38072ft 418kts
01-Oct-19 19:13 44.944319 -116.705137 298 38073ft 418kts
01-Oct-19 19:14 44.995973 -116.852266 298 38072ft 418kts
01-Oct-19 19:15 45.047407 -116.999579 298 38071ft 418kts
01-Oct-19 19:16 45.098509 -117.146741 298 38151ft 416kts
01-Oct-19 19:17 45.149222 -117.293601 299 38158ft 416kts
01-Oct-19 19:18 45.199977 -117.441390 299 38178ft 416kts
01-Oct-19 19:19 45.250311 -117.588764 299 38185ft 417kts
01-Oct-19 19:20 45.300829 -117.737337 298 38190ft 416kts
01-Oct-19 19:21 45.350645 -117.884710 294 38184ft 411kts
01-Oct-19 19:22 45.399468 -118.030388 295 38183ft 407kts
01-Oct-19 19:23 45.447901 -118.175419 295 38182ft 405kts
01-Oct-19 19:24 45.495953 -118.320101 295 38180ft 403kts
01-Oct-19 19:25 45.543487 -118.464014 295 38180ft 401kts
01-Oct-19 19:26 45.590625 -118.607509 295 38178ft 399kts
01-Oct-19 19:27 45.636874 -118.749099 294 38184ft 398kts
01-Oct-19 19:28 45.683281 -118.891901 294 38183ft 397kts
01-Oct-19 19:29 45.746989 -119.020138 308 38182ft 396kts
01-Oct-19 19:30 45.818118 -119.140639 308 38181ft 395kts
01-Oct-19 19:31 45.889016 -119.260968 308 38179ft 394kts
01-Oct-19 19:32 45.959437 -119.381001 308 38178ft 393kts
01-Oct-19 19:33 46.029523 -119.500981 308 38176ft 392kts
01-Oct-19 19:34 46.099370 -119.621070 308 38174ft 390kts
01-Oct-19 19:35 46.167093 -119.738030 308 38188ft 390kts
01-Oct-19 19:36 46.236531 -119.858420 308 38186ft 390kts
01-Oct-19 19:37 46.306018 -119.979158 306 37791ft 398kts
01-Oct-19 19:38 46.379418 -120.107760 302 36099ft 438kts
01-Oct-19 19:39 46.460726 -120.253121 317 34470ft 478kts
01-Oct-19 19:40 46.536681 -120.385016 316 32826ft 402kts
01-Oct-19 19:41 46.604284 -120.516097 312 31024ft 407kts
01-Oct-19 19:42 46.669228 -120.651578 310 29240ft 418kts
01-Oct-19 19:43 46.734730 -120.789496 310 27455ft 424kts
01-Oct-19 19:44 46.802091 -120.932013 309 25542ft 426kts
01-Oct-19 19:45 46.869122 -121.074595 309 23504ft 426kts
01-Oct-19 19:46 46.931089 -121.207425 309 21225ft 351kts
01-Oct-19 19:47 46.983208 -121.319061 309 18817ft 326kts
01-Oct-19 19:48 47.034591 -121.429697 308 16760ft 331kts
01-Oct-19 19:49 47.085964 -121.541016 308 16671ft 322kts
01-Oct-19 19:50 47.135143 -121.647791 307 14622ft 319kts
01-Oct-19 19:51 47.184155 -121.754728 306 12903ft 312kts
01-Oct-19 19:52 47.231332 -121.858183 306 12173ft 306kts
01-Oct-19 19:53 47.278363 -121.961622 306 11964ft 298kts
01-Oct-19 19:54 47.324008 -122.062335 306 11964ft 292kts
01-Oct-19 19:55 47.379426 -122.136370 357 11978ft 275kts
01-Oct-19 19:56 47.456309 -122.140391 358 11964ft 278kts
01-Oct-19 19:57 47.533660 -122.143763 358 11731ft 277kts
01-Oct-19 19:58 47.610741 -122.147022 358 10622ft 276kts
01-Oct-19 19:59 47.687339 -122.150370 359 9317ft 275kts
01-Oct-19 20:00 47.764532 -122.155565 358 7592ft 280kts
01-Oct-19 20:01 47.840172 -122.157161 359 6231ft 260kts
01-Oct-19 20:02 47.909377 -122.158110 359 4931ft 239kts
01-Oct-19 20:03 47.971648 -122.159372 359 3548ft 212kts
01-Oct-19 20:04 48.003993 -122.210504 265 2303ft 187kts
01-Oct-19 20:05 47.994545 -122.280625 216 1899ft 162kts
01-Oct-19 20:06 47.952169 -122.286382 178 1230ft 136kts
01-Oct-19 20:07 47.918289 -122.285762 179 580ft 114kts
01-Oct-19 20:08 47.906408 -122.283983 55 568ft 2kts
01-Oct-19 20:09 47.906469 -122.283863 51 568ft 2kts
01-Oct-19 20:10 47.907190 -122.280952 130 568ft 13kts
01-Oct-19 20:11 47.904369 -122.276444 45 568ft 6kts
01-Oct-19 20:12 47.904459 -122.276318 42 568ft 0kts
01-Oct-19 20:13 47.904459 -122.276318 42 568ft 0kts
01-Oct-19 20:14 47.904459 -122.276318 42 568ft 0kts

Navigation Log

Ident Type
Flight plan parsing failed, navigation log unavailable